Time;durP1;ratioP1;P1;durP2;ratioP2;P2;SDS_P1;SDS_P2;PMS_P1;PMS_P2;Temp;Humidity;BMP_temperature;BMP_pressure;BME280_temperature;BME280_humidity;BME280_pressure;Samples;Min_cycle;Max_cycle;Signal;HPM_P1;HPM_P2
2023/06/29 00:00:46;;;;;;;115.30;110.47;;;18.80;99.90;;;;;;4898780;29;20491;-82
2023/06/29 00:03:11;;;;;;;124.47;119.17;;;18.80;99.90;;;;;;4929879;29;20222;-82
2023/06/29 00:05:37;;;;;;;119.70;114.17;;;18.80;99.90;;;;;;4929353;29;20700;-82
2023/06/29 00:08:04;;;;;;;120.63;115.27;;;18.80;99.90;;;;;;4913861;29;20668;-82
2023/06/29 00:10:29;;;;;;;121.73;116.20;;;18.70;99.90;;;;;;4930593;28;20194;-82
2023/06/29 00:12:55;;;;;;;128.17;123.07;;;18.80;99.90;;;;;;4930264;29;20189;-82
2023/06/29 00:15:21;;;;;;;124.13;118.87;;;18.70;99.90;;;;;;4913661;29;20301;-82
2023/06/29 00:17:47;;;;;;;119.73;114.80;;;18.70;99.90;;;;;;4913873;29;20222;-82
2023/06/29 00:20:16;;;;;;;118.63;113.60;;;18.70;99.90;;;;;;4913658;29;20293;-82
2023/06/29 00:22:47;;;;;;;125.97;120.47;;;18.70;99.90;;;;;;4913674;28;20292;-82
2023/06/29 00:25:14;;;;;;;116.53;111.60;;;18.70;99.90;;;;;;4915211;29;20731;-82
2023/06/29 00:27:40;;;;;;;131.87;126.23;;;18.70;99.90;;;;;;4929303;29;20272;-82
2023/06/29 00:30:06;;;;;;;126.37;120.70;;;18.80;99.90;;;;;;4930711;28;20226;-82
2023/06/29 00:32:32;;;;;;;126.47;121.13;;;18.80;99.90;;;;;;4929244;28;20234;-82
2023/06/29 00:34:58;;;;;;;133.67;127.67;;;18.80;99.90;;;;;;4913214;29;20615;-82
2023/06/29 00:37:24;;;;;;;126.00;120.80;;;18.80;99.90;;;;;;4913366;28;20186;-82
2023/06/29 00:39:50;;;;;;;126.27;120.97;;;18.80;99.90;;;;;;4930826;28;20182;-82
2023/06/29 00:42:16;;;;;;;134.97;129.47;;;18.80;99.90;;;;;;4913224;29;20225;-82
2023/06/29 00:44:42;;;;;;;130.53;125.27;;;18.80;99.90;;;;;;4930313;28;20252;-82
2023/06/29 00:47:08;;;;;;;126.37;120.83;;;18.90;99.90;;;;;;4928886;29;20237;-82
2023/06/29 00:49:34;;;;;;;126.67;121.20;;;18.80;99.90;;;;;;4928711;28;20182;-82
2023/06/29 00:52:00;;;;;;;128.73;122.97;;;18.90;99.90;;;;;;4913918;29;20198;-82
2023/06/29 00:54:26;;;;;;;125.53;120.47;;;18.80;99.90;;;;;;4928599;29;20641;-82
2023/06/29 00:56:52;;;;;;;128.97;123.53;;;18.80;99.90;;;;;;4928663;29;20222;-82
2023/06/29 00:59:18;;;;;;;123.63;118.50;;;18.90;99.90;;;;;;4929832;28;20225;-82
2023/06/29 01:01:45;;;;;;;129.80;124.63;;;18.80;99.90;;;;;;4930110;28;20229;-82
2023/06/29 01:04:17;;;;;;;136.00;130.70;;;18.90;99.90;;;;;;4913745;29;20182;-81
2023/06/29 01:06:54;;;;;;;126.33;121.03;;;18.90;99.90;;;;;;4913251;29;20253;-82
2023/06/29 01:09:20;;;;;;;133.27;127.77;;;18.90;99.90;;;;;;4929764;28;20292;-82
2023/06/29 01:11:47;;;;;;;124.30;119.50;;;18.90;99.90;;;;;;4928647;29;20225;-82
2023/06/29 01:14:15;;;;;;;130.60;124.97;;;18.90;99.90;;;;;;4912875;29;20479;-82
2023/06/29 01:16:43;;;;;;;128.17;122.53;;;18.90;99.90;;;;;;4928451;28;21987;-82
2023/06/29 01:19:13;;;;;;;136.07;130.60;;;19.00;99.90;;;;;;4929745;29;20205;-82
2023/06/29 01:21:51;;;;;;;134.83;129.13;;;19.00;99.90;;;;;;4929957;28;20472;-82
2023/06/29 01:24:18;;;;;;;127.40;122.17;;;19.00;99.90;;;;;;4928405;29;20225;-82
2023/06/29 01:26:44;;;;;;;124.23;119.33;;;18.90;99.90;;;;;;4928358;29;20250;-82
2023/06/29 01:29:10;;;;;;;136.50;131.20;;;19.00;99.90;;;;;;4912572;29;20218;-82
2023/06/29 01:31:36;;;;;;;128.00;123.03;;;18.90;99.90;;;;;;4928660;28;20628;-82
2023/06/29 01:34:02;;;;;;;131.37;126.03;;;19.00;99.90;;;;;;4928816;29;20667;-82
2023/06/29 01:36:38;;;;;;;133.37;127.70;;;19.00;99.90;;;;;;4929616;28;20237;-82
2023/06/29 01:39:13;;;;;;;134.30;129.17;;;19.00;99.90;;;;;;4929632;28;20253;-82
2023/06/29 01:41:42;;;;;;;131.43;126.40;;;19.00;99.90;;;;;;4928288;28;20233;-83
2023/06/29 01:44:11;;;;;;;126.87;121.83;;;19.00;99.90;;;;;;4929568;28;20229;-82
2023/06/29 01:46:39;;;;;;;140.33;134.40;;;19.00;99.90;;;;;;4928074;28;20633;-82
2023/06/29 01:49:05;;;;;;;135.87;130.27;;;19.00;99.90;;;;;;4930030;29;20265;-82
2023/06/29 01:51:31;;;;;;;128.90;123.77;;;19.00;99.90;;;;;;4928113;29;20714;-82
2023/06/29 01:53:57;;;;;;;132.40;126.70;;;19.00;99.90;;;;;;4912321;29;20229;-82
2023/06/29 01:56:23;;;;;;;137.47;131.63;;;19.00;99.90;;;;;;4929279;28;20230;-81
2023/06/29 01:58:49;;;;;;;140.10;134.60;;;19.10;99.90;;;;;;4928392;29;20222;-82
2023/06/29 02:01:14;;;;;;;143.07;137.13;;;19.10;99.90;;;;;;4930114;29;20193;-81
2023/06/29 02:03:40;;;;;;;128.43;122.93;;;19.10;99.90;;;;;;4912266;29;20230;-82
2023/06/29 02:06:06;;;;;;;144.73;138.97;;;19.10;99.90;;;;;;4929030;28;20887;-82
2023/06/29 02:08:33;;;;;;;147.10;140.77;;;19.10;99.90;;;;;;4928104;29;20301;-82
2023/06/29 02:10:59;;;;;;;134.53;128.93;;;19.10;99.90;;;;;;4927809;29;20287;-82
2023/06/29 02:13:25;;;;;;;146.47;140.23;;;19.10;99.90;;;;;;4927947;28;20274;-82
2023/06/29 02:15:50;;;;;;;141.97;136.17;;;19.10;99.90;;;;;;4928426;29;20629;-82
2023/06/29 02:18:16;;;;;;;148.93;142.50;;;19.10;99.90;;;;;;4927928;29;20224;-82
2023/06/29 02:20:42;;;;;;;139.17;133.00;;;19.10;99.90;;;;;;4928035;29;20308;-82
2023/06/29 02:23:07;;;;;;;135.50;130.00;;;19.20;99.90;;;;;;4927866;29;20313;-83
2023/06/29 02:25:33;;;;;;;145.20;138.90;;;19.20;99.90;;;;;;4928050;28;20194;-82
2023/06/29 02:27:59;;;;;;;138.97;132.70;;;19.20;99.90;;;;;;4928678;29;20641;-82
2023/06/29 02:30:25;;;;;;;143.83;138.00;;;19.20;99.90;;;;;;4912445;29;20810;-82
2023/06/29 02:32:50;;;;;;;140.93;135.33;;;19.20;99.90;;;;;;4931687;29;20229;-83
2023/06/29 02:35:16;;;;;;;147.47;141.20;;;19.20;99.90;;;;;;4915425;29;20246;-82
2023/06/29 02:37:42;;;;;;;147.97;141.90;;;19.10;99.90;;;;;;4932438;28;20214;-82
2023/06/29 02:40:08;;;;;;;149.13;142.17;;;19.20;99.90;;;;;;4931760;29;20858;-82
2023/06/29 02:42:34;;;;;;;155.03;148.30;;;19.10;99.90;;;;;;4932434;28;20680;-82
2023/06/29 02:44:59;;;;;;;151.63;144.47;;;19.10;99.90;;;;;;4915596;29;20261;-82
2023/06/29 02:47:25;;;;;;;157.13;150.77;;;19.10;99.90;;;;;;4931005;29;20868;-81
2023/06/29 02:49:51;;;;;;;147.03;140.87;;;19.10;99.90;;;;;;4931101;28;20222;-82
2023/06/29 02:52:16;;;;;;;137.23;131.07;;;19.10;99.90;;;;;;4931716;29;20188;-82
2023/06/29 02:54:42;;;;;;;144.87;138.27;;;19.10;99.90;;;;;;4915344;29;20246;-83
2023/06/29 02:57:08;;;;;;;143.67;137.30;;;19.10;99.90;;;;;;4915000;29;20232;-81
2023/06/29 02:59:34;;;;;;;152.83;146.17;;;19.10;99.90;;;;;;4932016;28;20229;-82
2023/06/29 03:02:03;;;;;;;152.20;145.37;;;19.10;99.90;;;;;;4932142;28;20837;-82
2023/06/29 03:04:29;;;;;;;146.20;139.90;;;19.10;99.90;;;;;;4915209;28;20186;-83
2023/06/29 03:06:54;;;;;;;146.53;140.47;;;19.10;99.90;;;;;;4931061;29;20237;-83
2023/06/29 03:09:20;;;;;;;145.10;139.23;;;19.10;99.90;;;;;;4899208;29;20234;-83
2023/06/29 03:11:46;;;;;;;148.97;142.77;;;19.10;99.90;;;;;;4914670;29;20233;-83
2023/06/29 03:14:11;;;;;;;150.37;144.20;;;19.10;99.90;;;;;;4899137;29;20250;-82
2023/06/29 03:16:38;;;;;;;154.27;147.90;;;19.10;99.90;;;;;;4930486;28;20190;-83
2023/06/29 03:19:03;;;;;;;145.37;138.97;;;19.10;99.90;;;;;;4915258;29;20703;-82
2023/06/29 03:21:29;;;;;;;145.77;139.90;;;19.10;99.90;;;;;;4930089;29;20304;-83
2023/06/29 03:23:55;;;;;;;148.67;142.07;;;19.20;99.90;;;;;;4914069;29;20436;-83
2023/06/29 03:26:21;;;;;;;143.70;137.97;;;19.10;99.90;;;;;;4930133;29;20633;-84
2023/06/29 03:28:47;;;;;;;133.47;128.03;;;19.20;99.90;;;;;;4930372;29;20297;-84
2023/06/29 03:31:12;;;;;;;146.60;140.67;;;19.20;99.90;;;;;;4930703;29;20759;-84
2023/06/29 03:33:38;;;;;;;144.63;138.33;;;19.20;99.90;;;;;;4930385;29;20218;-83
2023/06/29 03:36:05;;;;;;;131.03;125.60;;;19.20;99.90;;;;;;4930333;29;20304;-83
2023/06/29 03:38:31;;;;;;;152.67;146.50;;;19.30;99.90;;;;;;4931325;28;20217;-84
2023/06/29 03:40:56;;;;;;;148.70;142.70;;;19.30;99.90;;;;;;4929641;29;20218;-83
2023/06/29 03:43:22;;;;;;;138.47;133.20;;;19.30;99.90;;;;;;4930181;28;20266;-84
2023/06/29 03:45:48;;;;;;;133.83;128.67;;;19.30;99.90;;;;;;4898920;29;20711;-83
2023/06/29 03:48:13;;;;;;;137.90;132.60;;;19.40;99.90;;;;;;4929969;29;20221;-83
2023/06/29 03:50:40;;;;;;;127.87;122.57;;;19.30;99.90;;;;;;4929777;29;20261;-83
2023/06/29 03:53:06;;;;;;;132.57;127.50;;;19.40;99.90;;;;;;4929999;29;20301;-83
2023/06/29 03:55:31;;;;;;;143.03;137.20;;;19.40;99.90;;;;;;4913809;28;20293;-83
2023/06/29 03:57:57;;;;;;;139.40;133.90;;;19.50;99.90;;;;;;4930335;29;20279;-83
2023/06/29 04:00:23;;;;;;;142.03;136.17;;;19.50;99.90;;;;;;4898350;29;20226;-83
2023/06/29 04:02:49;;;;;;;131.27;125.47;;;19.60;99.90;;;;;;4929728;29;20233;-83
2023/06/29 04:05:15;;;;;;;132.17;126.77;;;19.60;99.90;;;;;;4929537;29;20683;-83
2023/06/29 04:07:41;;;;;;;135.00;129.50;;;19.60;99.90;;;;;;4913931;28;20727;-83
2023/06/29 04:10:07;;;;;;;131.77;126.33;;;19.60;99.90;;;;;;4930236;29;20202;-83
2023/06/29 04:12:33;;;;;;;127.90;122.70;;;19.70;99.90;;;;;;4929347;29;20222;-83
2023/06/29 04:14:58;;;;;;;132.37;127.07;;;19.70;99.90;;;;;;4929548;29;20242;-83
2023/06/29 04:17:24;;;;;;;138.77;133.00;;;19.80;99.90;;;;;;4929600;29;20225;-84
2023/06/29 04:19:50;;;;;;;134.67;129.20;;;19.80;99.90;;;;;;4897927;29;20608;-84
2023/06/29 04:22:16;;;;;;;134.20;128.47;;;19.80;99.90;;;;;;4930179;29;20814;-83
2023/06/29 04:24:41;;;;;;;142.20;136.40;;;19.90;99.90;;;;;;4897687;29;20221;-83
2023/06/29 04:27:07;;;;;;;136.53;130.73;;;20.00;99.90;;;;;;4913741;29;20675;-83
2023/06/29 04:29:33;;;;;;;127.00;121.30;;;20.00;99.90;;;;;;4913481;29;20589;-83
2023/06/29 04:31:59;;;;;;;133.20;127.60;;;20.00;99.90;;;;;;4897748;29;20222;-84
2023/06/29 04:34:24;;;;;;;126.40;120.47;;;20.10;99.90;;;;;;4929251;28;20214;-82
2023/06/29 04:36:51;;;;;;;138.27;132.33;;;20.10;99.90;;;;;;4929664;29;20186;-83
2023/06/29 04:39:16;;;;;;;131.17;125.33;;;20.10;99.90;;;;;;4930593;28;20261;-83
2023/06/29 04:41:42;;;;;;;129.00;123.67;;;20.10;99.90;;;;;;4930176;28;20218;-84
2023/06/29 04:44:08;;;;;;;123.77;118.60;;;20.10;99.90;;;;;;4929020;29;20221;-84
2023/06/29 04:46:38;;;;;;;130.00;124.30;;;20.10;99.90;;;;;;4930051;28;20195;-84
2023/06/29 04:49:07;;;;;;;126.60;121.37;;;20.00;99.90;;;;;;4913952;29;20245;-83
2023/06/29 04:51:37;;;;;;;121.50;116.27;;;20.00;99.90;;;;;;4928910;29;20284;-83
2023/06/29 04:54:06;;;;;;;133.73;128.17;;;19.90;99.90;;;;;;4928176;29;20237;-84
2023/06/29 04:56:32;;;;;;;129.30;123.00;;;19.90;99.90;;;;;;4913296;29;20233;-83
2023/06/29 04:58:58;;;;;;;123.97;118.13;;;19.90;99.90;;;;;;4928630;29;20226;-83
2023/06/29 05:01:24;;;;;;;132.03;126.27;;;19.90;99.90;;;;;;4913238;28;20704;-83
2023/06/29 05:03:50;;;;;;;131.67;126.17;;;19.90;99.90;;;;;;4929172;29;20282;-83
2023/06/29 05:06:16;;;;;;;126.60;121.00;;;19.80;99.90;;;;;;4928357;29;20369;-83
2023/06/29 05:08:41;;;;;;;139.33;133.30;;;19.80;99.90;;;;;;4928656;29;20229;-83
2023/06/29 05:11:07;;;;;;;138.90;132.87;;;19.80;99.90;;;;;;4912815;29;20228;-83
2023/06/29 05:13:35;;;;;;;132.50;126.83;;;19.80;99.90;;;;;;4928353;28;20188;-82
2023/06/29 05:16:04;;;;;;;142.50;136.43;;;19.90;99.90;;;;;;4898414;29;20186;-83
2023/06/29 05:18:31;;;;;;;132.27;126.27;;;19.80;99.90;;;;;;4929685;28;20576;-83
2023/06/29 05:21:00;;;;;;;130.13;124.67;;;19.80;99.90;;;;;;4929559;28;20233;-83
2023/06/29 05:23:26;;;;;;;137.43;131.63;;;19.80;99.90;;;;;;4928453;29;20590;-83
2023/06/29 05:25:52;;;;;;;150.40;143.60;;;19.80;99.90;;;;;;4929514;29;20226;-83
2023/06/29 05:28:17;;;;;;;148.37;142.13;;;19.80;99.90;;;;;;4913403;29;20204;-83
2023/06/29 05:30:43;;;;;;;151.13;144.00;;;19.90;99.90;;;;;;4928362;29;20217;-82
2023/06/29 05:33:09;;;;;;;144.70;138.10;;;19.80;99.90;;;;;;4896964;29;20213;-83
2023/06/29 05:35:35;;;;;;;150.43;143.80;;;19.80;99.90;;;;;;4912339;29;20230;-82
2023/06/29 05:38:01;;;;;;;150.17;143.97;;;19.80;99.90;;;;;;4912546;29;20306;-83
2023/06/29 05:40:27;;;;;;;143.87;137.10;;;19.90;99.90;;;;;;4912647;28;20212;-82
2023/06/29 05:42:53;;;;;;;154.13;147.83;;;19.90;99.90;;;;;;4929930;29;20774;-82
2023/06/29 05:45:19;;;;;;;152.53;145.80;;;19.90;99.90;;;;;;4912580;29;20743;-83
2023/06/29 05:47:44;;;;;;;150.30;143.87;;;19.90;99.90;;;;;;4928178;29;20264;-83
2023/06/29 05:50:10;;;;;;;147.50;141.10;;;20.00;99.90;;;;;;4929477;28;20213;-84
2023/06/29 05:52:37;;;;;;;148.80;142.00;;;20.00;99.90;;;;;;4912308;28;20617;-83
2023/06/29 05:55:03;;;;;;;151.20;145.17;;;20.10;99.90;;;;;;4928593;29;20297;-82
2023/06/29 05:57:29;;;;;;;144.50;138.17;;;20.10;99.90;;;;;;4928383;28;20366;-83
2023/06/29 05:59:55;;;;;;;142.37;136.43;;;20.20;99.90;;;;;;4927765;29;20276;-83
2023/06/29 06:02:21;;;;;;;145.13;138.47;;;20.20;99.90;;;;;;4896762;29;20304;-82
2023/06/29 06:04:47;;;;;;;150.33;143.93;;;20.20;99.90;;;;;;4929403;29;20225;-83
2023/06/29 06:07:30;;;;;;;150.23;143.77;;;20.20;99.90;;;;;;4915627;29;20241;-82
2023/06/29 06:09:56;;;;;;;148.83;142.30;;;20.30;99.90;;;;;;4933317;29;20210;-82
2023/06/29 06:12:22;;;;;;;157.37;150.33;;;20.30;99.90;;;;;;4915925;29;20854;-81
2023/06/29 06:14:48;;;;;;;142.93;136.53;;;20.30;99.90;;;;;;4915651;29;20257;-80
2023/06/29 06:17:14;;;;;;;150.27;144.03;;;20.30;99.90;;;;;;4915766;29;20296;-80
2023/06/29 06:19:41;;;;;;;147.30;140.90;;;20.40;99.90;;;;;;4931470;28;20189;-80
2023/06/29 06:22:07;;;;;;;147.93;141.73;;;20.40;99.90;;;;;;4933367;28;20784;-79
2023/06/29 06:24:32;;;;;;;144.90;139.33;;;20.40;99.90;;;;;;4931677;29;20305;-80
2023/06/29 06:26:58;;;;;;;154.97;148.67;;;20.50;99.90;;;;;;4931215;29;20300;-80
2023/06/29 06:29:24;;;;;;;139.23;133.47;;;20.50;99.90;;;;;;4931271;29;20222;-80
2023/06/29 06:31:50;;;;;;;156.33;149.80;;;20.50;99.90;;;;;;4931181;29;20859;-80
2023/06/29 06:34:15;;;;;;;143.23;137.30;;;20.50;99.90;;;;;;4931916;29;20260;-80
2023/06/29 06:36:41;;;;;;;142.63;136.53;;;20.50;99.90;;;;;;4899863;29;20226;-80
2023/06/29 06:39:07;;;;;;;149.20;143.40;;;20.40;99.90;;;;;;4932536;28;20218;-80
2023/06/29 06:41:33;;;;;;;143.07;137.07;;;20.40;99.90;;;;;;4931089;29;20307;-80
2023/06/29 06:43:59;;;;;;;144.63;138.53;;;20.40;99.90;;;;;;4931188;29;20229;-80
2023/06/29 06:46:25;;;;;;;152.57;146.07;;;20.40;99.90;;;;;;4931406;28;20360;-81
2023/06/29 06:48:51;;;;;;;148.20;141.87;;;20.40;99.90;;;;;;4900462;29;20660;-81
2023/06/29 06:51:17;;;;;;;148.93;142.43;;;20.50;99.90;;;;;;4932360;28;20256;-80
2023/06/29 06:53:43;;;;;;;150.37;143.93;;;20.50;99.90;;;;;;4930889;29;20273;-81
2023/06/29 06:56:08;;;;;;;144.67;138.67;;;20.40;99.90;;;;;;4915058;29;20226;-80
2023/06/29 06:58:34;;;;;;;152.17;146.07;;;20.30;99.90;;;;;;4932112;28;20671;-80
2023/06/29 07:01:00;;;;;;;163.10;156.17;;;20.30;99.90;;;;;;4931328;29;20534;-80
2023/06/29 07:03:26;;;;;;;157.73;151.03;;;20.30;99.90;;;;;;4931924;28;20574;-81
2023/06/29 07:05:55;;;;;;;144.03;137.93;;;20.30;99.90;;;;;;4931754;28;20301;-80
2023/06/29 07:08:21;;;;;;;151.33;145.33;;;20.20;99.90;;;;;;4931857;28;20229;-81
2023/06/29 07:10:47;;;;;;;160.20;153.97;;;20.30;99.90;;;;;;4931900;28;20218;-82
2023/06/29 07:13:13;;;;;;;155.10;148.77;;;20.20;99.90;;;;;;4931301;29;20178;-82
2023/06/29 07:15:39;;;;;;;152.90;146.90;;;20.20;99.90;;;;;;4930325;29;20226;-81
2023/06/29 07:18:04;;;;;;;153.63;147.20;;;20.20;99.90;;;;;;4914040;29;20774;-81
2023/06/29 07:20:30;;;;;;;159.27;152.53;;;20.20;99.90;;;;;;4930387;29;20587;-81
2023/06/29 07:22:56;;;;;;;149.43;143.57;;;20.20;99.90;;;;;;4931536;28;20230;-81
2023/06/29 07:25:22;;;;;;;158.90;152.50;;;20.30;99.90;;;;;;4914740;28;20628;-80
2023/06/29 07:27:47;;;;;;;144.90;139.03;;;20.30;99.90;;;;;;4930563;29;20682;-81
2023/06/29 07:30:13;;;;;;;157.70;151.40;;;20.30;99.90;;;;;;4930490;29;20686;-83
2023/06/29 07:32:39;;;;;;;160.50;153.37;;;20.30;99.90;;;;;;4929364;29;20734;-82
2023/06/29 07:35:06;;;;;;;164.43;157.90;;;20.50;99.90;;;;;;4930017;29;20253;-82
2023/06/29 07:37:33;;;;;;;164.13;157.83;;;20.50;99.90;;;;;;4914625;28;20213;-81
2023/06/29 07:39:59;;;;;;;160.47;154.20;;;20.70;99.90;;;;;;4931898;28;20182;-82
2023/06/29 07:42:25;;;;;;;161.37;154.57;;;20.70;99.90;;;;;;4930237;29;20636;-82
2023/06/29 07:44:51;;;;;;;160.00;153.73;;;20.70;99.90;;;;;;4914232;29;20229;-82
2023/06/29 07:47:16;;;;;;;153.80;147.13;;;20.60;99.90;;;;;;4914514;29;20222;-82
2023/06/29 07:49:42;;;;;;;174.47;167.93;;;20.80;99.90;;;;;;4929891;28;20850;-81
2023/06/29 07:52:08;;;;;;;160.43;154.03;;;20.60;99.90;;;;;;4930956;29;20663;-81
2023/06/29 07:54:33;;;;;;;160.27;154.23;;;20.70;99.90;;;;;;4929934;29;20718;-82
2023/06/29 07:56:59;;;;;;;169.93;162.93;;;20.80;99.90;;;;;;4930113;29;20227;-81
2023/06/29 07:59:25;;;;;;;167.27;160.93;;;20.80;99.90;;;;;;4931090;28;20304;-82
2023/06/29 08:01:51;;;;;;;152.00;145.53;;;20.80;99.90;;;;;;4930906;28;20218;-82
2023/06/29 08:04:16;;;;;;;160.60;154.03;;;20.90;99.90;;;;;;4930491;29;20273;-81
2023/06/29 08:06:43;;;;;;;162.75;156.27;;;20.80;99.90;;;;;;4929562;29;20617;-81
2023/06/29 08:09:13;;;;;;;161.90;155.20;;;20.80;99.90;;;;;;4929726;29;20243;-81
2023/06/29 08:11:39;;;;;;;169.00;162.27;;;20.80;99.90;;;;;;4930888;28;20554;-82
2023/06/29 08:14:05;;;;;;;162.17;155.30;;;20.70;99.90;;;;;;4898148;29;20711;-81
2023/06/29 08:16:31;;;;;;;162.87;155.97;;;20.60;99.90;;;;;;4929249;28;20652;-81
2023/06/29 08:18:58;;;;;;;158.57;152.07;;;20.60;99.90;;;;;;4929621;29;20182;-81
2023/06/29 08:21:23;;;;;;;163.73;156.87;;;20.60;99.90;;;;;;4930506;28;20658;-81
2023/06/29 08:23:50;;;;;;;171.93;165.07;;;20.50;99.90;;;;;;4929149;29;20286;-81
2023/06/29 08:26:17;;;;;;;162.93;155.57;;;20.50;99.90;;;;;;4929623;29;20277;-82
2023/06/29 08:28:43;;;;;;;159.27;152.57;;;20.60;99.90;;;;;;4928991;28;20407;-82
2023/06/29 08:31:12;;;;;;;161.97;154.87;;;20.60;99.90;;;;;;4930990;28;20186;-81
2023/06/29 08:33:38;;;;;;;165.73;158.97;;;20.60;99.90;;;;;;4930681;28;20243;-81
2023/06/29 08:36:04;;;;;;;161.50;154.93;;;20.60;99.90;;;;;;4913692;29;20412;-81
2023/06/29 08:38:31;;;;;;;161.03;154.23;;;20.60;99.90;;;;;;4930424;29;20807;-82
2023/06/29 08:40:58;;;;;;;165.23;158.73;;;20.50;99.90;;;;;;4929194;29;20238;-82
2023/06/29 08:43:24;;;;;;;163.03;156.33;;;20.40;99.90;;;;;;4929297;28;20612;-82
2023/06/29 08:45:50;;;;;;;163.13;156.30;;;20.30;99.90;;;;;;4929895;29;20226;-81
2023/06/29 08:48:17;;;;;;;171.97;165.10;;;20.30;99.90;;;;;;4928832;29;20218;-82
2023/06/29 08:50:54;;;;;;;167.90;161.37;;;20.30;99.90;;;;;;4929810;28;20277;-82
2023/06/29 08:53:20;;;;;;;157.33;150.73;;;20.30;99.90;;;;;;4929630;28;20225;-82
2023/06/29 08:55:47;;;;;;;166.07;159.23;;;20.30;99.90;;;;;;4928715;29;20628;-82
2023/06/29 08:58:14;;;;;;;170.27;162.73;;;20.30;99.90;;;;;;4929498;29;20289;-81
2023/06/29 09:00:42;;;;;;;167.43;160.50;;;20.30;99.90;;;;;;4926701;29;20257;-81
2023/06/29 09:03:08;;;;;;;180.07;172.70;;;20.20;99.90;;;;;;4927517;29;20850;-83
2023/06/29 09:05:37;;;;;;;168.40;161.77;;;20.10;99.90;;;;;;4928008;29;20253;-83
2023/06/29 09:08:03;;;;;;;160.03;153.67;;;20.10;99.90;;;;;;4897003;29;20221;-83
2023/06/29 09:10:29;;;;;;;171.27;164.57;;;20.00;99.90;;;;;;4926978;28;20178;-83
2023/06/29 09:12:54;;;;;;;149.70;143.80;;;19.90;99.90;;;;;;4912842;29;20213;-82
2023/06/29 09:15:24;;;;;;;162.83;156.40;;;19.70;99.90;;;;;;4896579;29;20307;-82
2023/06/29 09:17:54;;;;;;;163.77;156.90;;;19.70;99.90;;;;;;4926009;28;20815;-81
2023/06/29 09:20:21;;;;;;;163.30;157.00;;;19.80;99.90;;;;;;4925866;29;20231;-82
2023/06/29 09:22:51;;;;;;;170.70;163.60;;;19.80;99.90;;;;;;4927696;29;20266;-83
2023/06/29 09:25:17;;;;;;;165.57;158.90;;;19.90;99.90;;;;;;4912545;29;20229;-81
2023/06/29 09:27:43;;;;;;;167.77;160.97;;;20.00;99.90;;;;;;4927777;29;20273;-82
2023/06/29 09:30:17;;;;;;;177.97;170.50;;;20.00;99.90;;;;;;4894918;29;20782;-83
2023/06/29 09:32:42;;;;;;;163.30;156.37;;;20.00;99.90;;;;;;4929683;28;20170;-82
2023/06/29 09:35:09;;;;;;;178.97;172.13;;;20.00;99.90;;;;;;4927538;29;20214;-82
2023/06/29 09:37:35;;;;;;;166.43;159.93;;;20.00;99.90;;;;;;4897226;29;20194;-82
2023/06/29 09:40:11;;;;;;;180.07;172.73;;;20.10;99.90;;;;;;4931597;29;20197;-82
2023/06/29 09:42:40;;;;;;;167.53;160.90;;;20.00;99.90;;;;;;4935773;28;20177;-82
2023/06/29 09:45:31;;;;;;;159.93;153.10;;;19.90;99.90;;;;;;4928575;29;20787;-82
2023/06/29 09:53:16;;;;;;;157.53;150.70;;;20.00;99.90;;;;;;4913846;29;20265;-82
2023/06/29 09:56:03;;;;;;;170.80;163.77;;;20.00;99.90;;;;;;4885344;29;20242;-83
2023/06/29 09:58:46;;;;;;;166.80;159.33;;;20.20;99.90;;;;;;4900672;29;20194;-82
2023/06/29 10:01:18;;;;;;;177.00;169.07;;;20.20;99.90;;;;;;4913687;28;20227;-81
2023/06/29 10:04:12;;;;;;;;;;;;;;;;;;;;;
2023/06/29 10:07:14;;;;;;;187.00;179.00;;;20.60;99.90;;;;;;4933780;28;20304;-82
2023/06/29 10:09:43;;;;;;;193.87;185.70;;;20.80;99.90;;;;;;4932468;29;20790;-81
2023/06/29 10:12:12;;;;;;;187.87;180.47;;;20.70;99.90;;;;;;4933794;28;20229;-81
2023/06/29 10:14:43;;;;;;;191.10;183.17;;;20.90;99.90;;;;;;4934015;29;20217;-82
2023/06/29 10:17:14;;;;;;;206.87;198.10;;;21.00;99.90;;;;;;4934728;28;20229;-82
2023/06/29 10:19:42;;;;;;;196.77;188.50;;;21.10;99.90;;;;;;4934186;28;20589;-82
2023/06/29 10:22:14;;;;;;;196.53;188.10;;;21.20;99.90;;;;;;4933311;29;20237;-82
2023/06/29 10:24:54;;;;;;;194.90;186.20;;;21.30;99.90;;;;;;4933566;29;20297;-82
2023/06/29 10:27:23;;;;;;;191.83;183.60;;;21.50;99.90;;;;;;4949388;28;20220;-82
2023/06/29 10:29:52;;;;;;;186.43;177.63;;;21.70;99.90;;;;;;4932626;28;20201;-82
2023/06/29 10:32:35;;;;;;;204.93;195.57;;;21.70;99.90;;;;;;4934045;29;20186;-82
2023/06/29 10:35:11;;;;;;;190.00;181.33;;;21.60;99.90;;;;;;4933396;29;20241;-82
2023/06/29 10:37:42;;;;;;;180.00;171.47;;;21.80;99.90;;;;;;4931716;29;20225;-81
2023/06/29 10:40:10;;;;;;;188.57;180.43;;;21.70;99.90;;;;;;4931576;29;20218;-82
2023/06/29 10:42:42;;;;;;;212.80;204.00;;;21.80;99.90;;;;;;4933400;29;20218;-82
2023/06/29 10:45:20;;;;;;;182.00;173.33;;;21.80;99.90;;;;;;4933451;28;20309;-82
2023/06/29 10:48:03;;;;;;;187.37;179.23;;;21.80;99.90;;;;;;4933417;28;20268;-82
2023/06/29 10:50:36;;;;;;;177.77;169.17;;;21.80;99.90;;;;;;4931418;29;20216;-81
2023/06/29 10:53:05;;;;;;;167.93;160.30;;;21.90;99.90;;;;;;4931134;28;20218;-82
2023/06/29 10:55:42;;;;;;;174.13;165.70;;;21.70;99.90;;;;;;4939262;28;20235;-82
2023/06/29 10:58:26;;;;;;;169.80;162.60;;;21.70;99.90;;;;;;4946343;28;20225;-82
2023/06/29 11:00:53;;;;;;;175.60;167.47;;;21.70;99.90;;;;;;4929962;28;20415;-82
2023/06/29 11:03:21;;;;;;;167.07;159.20;;;21.80;99.90;;;;;;4930021;29;20644;-82
2023/06/29 11:05:51;;;;;;;163.70;155.90;;;21.80;99.90;;;;;;4945386;28;20313;-82
2023/06/29 11:08:19;;;;;;;180.98;172.82;;;21.90;99.90;;;;;;4929886;29;20197;-83
2023/06/29 11:10:44;;;;;;;155.88;148.15;;;21.90;99.90;;;;;;4928605;29;20339;-82
2023/06/29 11:13:11;;;;;;;166.77;159.05;;;22.10;99.90;;;;;;4929572;29;20229;-82
2023/06/29 11:15:38;;;;;;;149.37;142.00;;;22.10;99.90;;;;;;4930681;28;20313;-82
2023/06/29 11:18:05;;;;;;;160.73;153.50;;;21.90;99.90;;;;;;4930796;28;20636;-82
2023/06/29 11:20:34;;;;;;;154.60;147.77;;;22.00;99.90;;;;;;4930504;29;20174;-81
2023/06/29 11:23:03;;;;;;;144.60;138.60;;;22.00;99.90;;;;;;4927889;29;20233;-82
2023/06/29 11:25:29;;;;;;;167.93;160.88;;;21.90;99.90;;;;;;4929538;29;20594;-82
2023/06/29 11:27:56;;;;;;;135.30;129.30;;;21.80;99.90;;;;;;4929390;29;20668;-81
2023/06/29 11:30:22;;;;;;;167.63;160.55;;;21.90;99.90;;;;;;4929654;29;20238;-81
2023/06/29 11:32:52;;;;;;;140.90;134.70;;;21.90;99.90;;;;;;4928723;28;20664;-81
2023/06/29 11:35:22;;;;;;;153.25;146.40;;;22.30;99.90;;;;;;4913359;29;20598;-81
2023/06/29 11:37:56;;;;;;;127.60;121.88;;;22.30;99.90;;;;;;4925696;28;20225;-81
2023/06/29 11:40:23;;;;;;;124.87;118.80;;;22.40;99.90;;;;;;4929122;29;20249;-81
2023/06/29 11:42:50;;;;;;;146.73;140.23;;;22.30;99.90;;;;;;4928505;29;20417;-82
2023/06/29 11:45:17;;;;;;;136.63;130.18;;;22.50;99.90;;;;;;4929306;28;20222;-82
2023/06/29 11:47:51;;;;;;;134.02;127.93;;;22.90;99.90;;;;;;4929767;29;20664;-82
2023/06/29 11:50:17;;;;;;;132.77;127.00;;;23.50;99.90;;;;;;4945100;28;20300;-81
2023/06/29 11:52:47;;;;;;;116.03;110.57;;;23.80;99.90;;;;;;4943435;28;20691;-82
2023/06/29 11:55:14;;;;;;;123.53;118.00;;;24.10;99.90;;;;;;4913521;29;20233;-81
2023/06/29 11:57:41;;;;;;;108.75;103.57;;;24.10;99.90;;;;;;4929028;29;20218;-80
2023/06/29 12:00:16;;;;;;;98.88;93.82;;;23.90;99.90;;;;;;4929787;28;20182;-81
2023/06/29 12:02:46;;;;;;;97.88;93.10;;;23.90;99.90;;;;;;4928457;29;20255;-81
2023/06/29 12:05:12;;;;;;;111.32;106.30;;;23.40;99.90;;;;;;4928595;29;20236;-81
2023/06/29 12:07:46;;;;;;;99.43;94.72;;;23.10;99.90;;;;;;4928060;29;20719;-81
2023/06/29 12:10:15;;;;;;;148.65;142.50;;;22.80;99.90;;;;;;4927463;29;20311;-80
2023/06/29 12:12:43;;;;;;;126.30;120.40;;;22.60;99.90;;;;;;4929136;28;20237;-82
2023/06/29 12:15:17;;;;;;;105.82;100.57;;;22.40;99.90;;;;;;4928509;28;20238;-82